Time;durP1;ratioP1;P1;durP2;ratioP2;P2;SDS_P1;SDS_P2;PMS_P1;PMS_P2;Temp;Humidity;BMP_temperature;BMP_pressure;BME280_temperature;BME280_humidity;BME280_pressure;Samples;Min_cycle;Max_cycle;Signal;HPM_P1;HPM_P2
2022/01/22 00:01:38;;;;;;;13.13;5.13;;;1.20;65.80;;;;;;5039239;28;20369;-33
2022/01/22 00:04:04;;;;;;;13.18;5.05;;;1.10;65.80;;;;;;5039101;28;20041;-39
2022/01/22 00:06:29;;;;;;;10.68;5.30;;;1.20;65.90;;;;;;5038588;28;20092;-37
2022/01/22 00:08:55;;;;;;;8.98;5.07;;;1.10;65.90;;;;;;5039230;28;20025;-42
2022/01/22 00:11:21;;;;;;;9.77;5.43;;;1.10;65.90;;;;;;5039001;28;20033;-36
2022/01/22 00:16:30;;;;;;;7.70;4.93;;;1.10;66.10;;;;;;5038910;28;20464;-40
2022/01/22 00:18:56;;;;;;;16.67;4.60;;;1.00;66.00;;;;;;5039364;28;20061;-35
2022/01/22 00:21:21;;;;;;;11.00;4.75;;;1.10;66.10;;;;;;5038517;28;20087;-36
2022/01/22 00:23:55;;;;;;;10.13;5.30;;;1.00;66.20;;;;;;5039057;28;20036;-40
2022/01/22 00:26:22;;;;;;;8.50;4.78;;;1.10;66.30;;;;;;5038699;28;20037;-38
2022/01/22 00:28:48;;;;;;;6.93;4.75;;;1.10;66.40;;;;;;5038955;28;20113;-41
2022/01/22 00:31:13;;;;;;;13.90;6.30;;;1.10;66.60;;;;;;5038690;28;20489;-39
2022/01/22 00:33:39;;;;;;;12.82;4.95;;;1.10;66.60;;;;;;5038990;28;20405;-36
2022/01/22 00:36:05;;;;;;;8.02;4.85;;;1.20;66.50;;;;;;5038285;28;20037;-39
2022/01/22 00:38:30;;;;;;;8.60;5.15;;;1.20;66.40;;;;;;5037747;28;20037;-37
2022/01/22 00:40:56;;;;;;;11.30;5.15;;;1.20;66.20;;;;;;5038498;28;20073;-36
2022/01/22 00:43:22;;;;;;;10.40;4.85;;;1.20;66.20;;;;;;5038455;28;20029;-39
2022/01/22 00:45:47;;;;;;;10.70;6.10;;;1.20;66.10;;;;;;5038336;28;20432;-36
2022/01/22 00:48:13;;;;;;;9.27;4.90;;;1.20;66.20;;;;;;5038406;28;20295;-41
2022/01/22 00:50:39;;;;;;;9.90;4.70;;;1.20;66.10;;;;;;5037748;28;20395;-39
2022/01/22 00:53:05;;;;;;;10.98;5.00;;;1.20;66.10;;;;;;5038247;28;20111;-39
2022/01/22 00:55:30;;;;;;;7.60;5.20;;;1.20;66.20;;;;;;5038024;28;20027;-41
2022/01/22 00:57:56;;;;;;;9.43;4.38;;;1.20;66.30;;;;;;5038184;28;20106;-38
2022/01/22 01:00:21;;;;;;;9.68;4.80;;;1.20;66.20;;;;;;5037926;28;20438;-38
2022/01/22 01:02:47;;;;;;;10.93;5.50;;;1.20;66.00;;;;;;5038438;28;20022;-36
2022/01/22 01:05:14;;;;;;;13.23;5.43;;;1.20;65.80;;;;;;5037588;28;20124;-35
2022/01/22 01:07:40;;;;;;;9.05;5.03;;;1.20;65.80;;;;;;5037729;28;20041;-39
2022/01/22 01:10:08;;;;;;;14.10;5.43;;;1.20;65.80;;;;;;5038099;28;20354;-36
2022/01/22 01:12:37;;;;;;;7.25;4.85;;;1.20;66.00;;;;;;5038185;28;20300;-42
2022/01/22 01:34:15;;;;;;;7.22;4.70;;;1.30;66.00;;;;;;5037903;28;20087;-38
2022/01/22 01:36:42;;;;;;;9.57;4.60;;;1.30;66.10;;;;;;5037471;28;20311;-42
2022/01/22 01:39:12;;;;;;;10.32;4.20;;;1.40;66.10;;;;;;5037515;28;20029;-37
2022/01/22 01:44:10;;;;;;;10.88;5.18;;;1.40;65.90;;;;;;5037565;28;20041;-37
2022/01/22 01:46:41;;;;;;;9.55;4.82;;;1.40;65.90;;;;;;5037262;28;20381;-38
2022/01/22 01:49:07;;;;;;;8.20;4.53;;;1.50;65.90;;;;;;5037415;28;20087;-39
2022/01/22 01:51:34;;;;;;;9.75;4.57;;;1.50;65.80;;;;;;5036976;28;20033;-36
2022/01/22 01:59:28;;;;;;;9.63;4.60;;;1.50;65.70;;;;;;5037293;28;20337;-38
2022/01/22 02:01:54;;;;;;;7.78;4.10;;;1.50;65.90;;;;;;5037063;28;20033;-34
2022/01/22 02:04:20;;;;;;;9.68;5.50;;;1.50;65.80;;;;;;5036544;28;20389;-38
2022/01/22 02:06:45;;;;;;;10.23;5.38;;;1.50;65.80;;;;;;5036672;28;20042;-33
2022/01/22 02:09:11;;;;;;;9.25;4.60;;;1.60;65.90;;;;;;5036776;28;20115;-39
2022/01/22 02:11:40;;;;;;;9.88;5.10;;;1.60;65.80;;;;;;5036945;28;20043;-39
2022/01/22 02:25:04;;;;;;;14.23;5.40;;;1.70;65.60;;;;;;5037145;28;20115;-42
2022/01/22 02:27:31;;;;;;;11.07;4.80;;;1.70;65.60;;;;;;5036853;28;20307;-40
2022/01/22 02:29:56;;;;;;;12.07;5.30;;;1.70;65.60;;;;;;5036507;28;20044;-42
2022/01/22 02:35:17;;;;;;;9.40;5.60;;;1.70;65.50;;;;;;5036990;28;20271;-38
2022/01/22 02:37:49;;;;;;;8.82;5.38;;;1.70;65.60;;;;;;5036290;28;20037;-42
2022/01/22 02:40:23;;;;;;;10.70;4.93;;;1.70;65.50;;;;;;5036083;28;20093;-40
2022/01/22 02:42:49;;;;;;;8.10;4.82;;;1.70;65.60;;;;;;5036553;28;20145;-37
2022/01/22 02:45:18;;;;;;;8.88;4.93;;;1.70;65.80;;;;;;5036008;28;20037;-40
2022/01/22 02:47:45;;;;;;;11.43;5.10;;;1.60;65.70;;;;;;5036430;28;20433;-37
2022/01/22 02:50:11;;;;;;;10.20;4.60;;;1.60;65.80;;;;;;5036236;28;20112;-40
2022/01/22 02:52:37;;;;;;;9.52;4.93;;;1.60;65.90;;;;;;5036674;28;20038;-37
2022/01/22 02:55:07;;;;;;;13.57;5.50;;;1.60;66.10;;;;;;5036307;28;20072;-42
2022/01/22 02:57:34;;;;;;;10.70;5.23;;;1.60;66.00;;;;;;5036322;28;20065;-41
2022/01/22 03:00:00;;;;;;;9.63;4.72;;;1.50;66.10;;;;;;5036238;28;20271;-39
2022/01/22 03:02:27;;;;;;;8.18;4.78;;;1.50;66.20;;;;;;5036257;28;20047;-36
2022/01/22 03:04:52;;;;;;;9.75;4.70;;;1.50;66.40;;;;;;5035537;28;20060;-37
2022/01/22 03:07:18;;;;;;;10.45;4.60;;;1.50;66.50;;;;;;5035727;28;20124;-39
2022/01/22 03:09:46;;;;;;;10.32;5.25;;;1.50;66.60;;;;;;5036021;28;20030;-35
2022/01/22 03:27:31;;;;;;;11.70;5.43;;;1.40;67.40;;;;;;5042403;28;20075;-38
2022/01/22 03:29:56;;;;;;;13.43;5.95;;;1.40;67.40;;;;;;5042322;28;20036;-40
2022/01/22 03:32:25;;;;;;;12.13;6.07;;;1.40;67.40;;;;;;5042534;28;20402;-37
2022/01/22 03:35:08;;;;;;;11.15;5.20;;;1.40;67.60;;;;;;5042235;28;20026;-39
2022/01/22 03:37:33;;;;;;;10.18;5.03;;;1.40;67.50;;;;;;5042163;28;20040;-34
2022/01/22 03:39:59;;;;;;;10.80;5.63;;;1.50;67.60;;;;;;5042394;28;20033;-38
2022/01/22 03:42:25;;;;;;;14.18;5.95;;;1.50;67.60;;;;;;5042467;28;20410;-40
2022/01/22 03:44:50;;;;;;;10.05;5.22;;;1.50;67.60;;;;;;5042514;28;20034;-38
2022/01/22 03:47:16;;;;;;;10.57;4.88;;;1.50;67.60;;;;;;5042208;28;20029;-39
2022/01/22 03:49:42;;;;;;;11.68;5.90;;;1.50;67.60;;;;;;5042051;28;20114;-32
2022/01/22 03:52:09;;;;;;;9.57;5.55;;;1.50;67.60;;;;;;5042208;28;20310;-40
2022/01/22 03:54:35;;;;;;;8.60;5.43;;;1.50;67.70;;;;;;5042206;28;20354;-34
2022/01/22 03:57:01;;;;;;;8.57;4.88;;;1.50;67.70;;;;;;5042064;28;20030;-36
2022/01/22 03:59:30;;;;;;;9.25;5.43;;;1.50;67.60;;;;;;5042123;28;20057;-36
2022/01/22 04:04:36;;;;;;;9.52;5.30;;;1.50;67.80;;;;;;5041915;28;20053;-39
2022/01/22 04:09:48;;;;;;;11.35;5.82;;;1.40;67.80;;;;;;5042330;28;20444;-41
2022/01/22 04:12:19;;;;;;;9.77;5.80;;;1.40;67.90;;;;;;5042106;28;20021;-37
2022/01/22 04:14:55;;;;;;;11.40;5.30;;;1.40;68.00;;;;;;5042241;28;20044;-37
2022/01/22 04:17:40;;;;;;;8.32;5.18;;;1.40;68.10;;;;;;5042028;28;20056;-34
2022/01/22 04:25:38;;;;;;;11.40;4.95;;;1.40;68.40;;;;;;5037716;28;20040;-40
2022/01/22 04:28:04;;;;;;;14.32;5.82;;;1.40;68.40;;;;;;5038533;28;20449;-38
2022/01/22 04:30:30;;;;;;;11.00;5.20;;;1.40;68.50;;;;;;5038643;28;20025;-36
2022/01/22 04:32:56;;;;;;;9.77;5.25;;;1.30;68.50;;;;;;5038456;28;20029;-37
2022/01/22 04:35:25;;;;;;;13.00;7.35;;;1.30;68.60;;;;;;5038569;28;20318;-39
2022/01/22 04:37:51;;;;;;;9.02;5.00;;;1.30;68.70;;;;;;5038705;28;20410;-40
2022/01/22 04:40:17;;;;;;;13.80;5.05;;;1.30;68.80;;;;;;5038273;28;20033;-37
2022/01/22 04:42:43;;;;;;;13.57;5.75;;;1.30;68.90;;;;;;5038617;28;20049;-41
2022/01/22 04:55:48;;;;;;;8.27;4.95;;;1.20;69.40;;;;;;5038312;28;20049;-38
2022/01/22 04:58:14;;;;;;;9.02;4.90;;;1.20;69.50;;;;;;5038113;28;20022;-39
2022/01/22 05:00:42;;;;;;;10.48;5.00;;;1.20;69.50;;;;;;5037908;28;20029;-39
2022/01/22 05:03:08;;;;;;;9.48;5.10;;;1.20;69.60;;;;;;5038144;28;20052;-37
2022/01/22 05:05:34;;;;;;;12.60;6.15;;;1.20;69.60;;;;;;5037560;28;20064;-39
2022/01/22 05:08:00;;;;;;;18.10;7.32;;;1.20;69.70;;;;;;5038005;28;20021;-39
2022/01/22 05:10:26;;;;;;;14.52;6.88;;;1.10;69.80;;;;;;5037850;28;20075;-35
2022/01/22 05:12:53;;;;;;;8.98;5.22;;;1.10;70.00;;;;;;5037894;28;20022;-41
2022/01/22 05:15:20;;;;;;;9.75;4.53;;;1.10;70.10;;;;;;5037814;28;20079;-38
2022/01/22 05:17:46;;;;;;;24.70;14.38;;;1.00;70.10;;;;;;5038098;28;20346;-38
2022/01/22 05:25:19;;;;;;;8.73;4.93;;;1.00;70.40;;;;;;5037314;28;20426;-38
2022/01/22 05:30:48;;;;;;;11.20;5.22;;;0.90;70.40;;;;;;5037700;28;20033;-32
2022/01/22 05:38:23;;;;;;;10.63;5.10;;;0.90;70.50;;;;;;5037454;28;20068;-33
2022/01/22 05:40:49;;;;;;;15.52;6.53;;;0.90;70.60;;;;;;5037021;28;20045;-32
2022/01/22 05:43:15;;;;;;;11.32;5.22;;;0.80;71.20;;;;;;5037383;28;20079;-34
2022/01/22 05:45:41;;;;;;;13.93;5.72;;;0.80;70.80;;;;;;5037235;28;20025;-34
2022/01/22 05:48:07;;;;;;;15.77;6.00;;;0.80;70.80;;;;;;5036890;28;20037;-33
2022/01/22 05:50:43;;;;;;;9.93;5.72;;;0.80;70.90;;;;;;5036995;28;20025;-33
2022/01/22 06:01:17;;;;;;;10.65;5.53;;;0.90;71.20;;;;;;5036876;28;20084;-33
2022/01/22 06:03:44;;;;;;;10.15;5.45;;;0.90;71.30;;;;;;5036733;28;20030;-33
2022/01/22 06:06:10;;;;;;;11.52;5.25;;;1.00;71.40;;;;;;5036762;28;20432;-32
2022/01/22 06:08:57;;;;;;;15.77;7.20;;;1.00;71.40;;;;;;5036159;28;20045;-32
2022/01/22 06:11:25;;;;;;;10.73;6.18;;;1.00;71.60;;;;;;5036393;28;20041;-32
2022/01/22 06:13:51;;;;;;;9.73;5.57;;;1.00;71.70;;;;;;5036729;28;20036;-32
2022/01/22 06:16:20;;;;;;;17.08;8.40;;;1.00;71.80;;;;;;5036422;28;20108;-33
2022/01/22 06:18:46;;;;;;;11.20;6.35;;;1.00;71.90;;;;;;5036837;28;20064;-33
2022/01/22 06:21:12;;;;;;;12.48;6.30;;;1.00;71.90;;;;;;5035919;28;20030;-33
2022/01/22 06:23:39;;;;;;;14.85;7.35;;;1.00;71.90;;;;;;5036727;28;20037;-33
2022/01/22 06:26:07;;;;;;;13.05;7.65;;;1.10;72.00;;;;;;5036006;28;20025;-33
2022/01/22 06:28:34;;;;;;;16.48;6.63;;;1.10;72.10;;;;;;5036361;28;20107;-33
2022/01/22 06:31:01;;;;;;;15.68;6.85;;;1.10;72.10;;;;;;5035829;28;20109;-35
2022/01/22 06:33:27;;;;;;;17.00;7.57;;;1.10;72.30;;;;;;5036374;28;20041;-36
2022/01/22 06:35:53;;;;;;;14.57;6.90;;;1.10;72.40;;;;;;5035909;28;20022;-38
2022/01/22 06:38:19;;;;;;;14.45;8.32;;;1.10;72.40;;;;;;5036291;28;20025;-37
2022/01/22 06:43:31;;;;;;;13.45;6.47;;;1.20;72.70;;;;;;5036167;28;20330;-37
2022/01/22 06:45:57;;;;;;;10.70;6.43;;;1.30;72.50;;;;;;5035912;28;20299;-37
2022/01/22 06:48:23;;;;;;;15.23;8.18;;;1.30;72.50;;;;;;5035498;28;20113;-39
2022/01/22 06:50:49;;;;;;;10.70;6.15;;;1.40;72.30;;;;;;5035970;28;20385;-36
2022/01/22 06:53:15;;;;;;;20.25;10.07;;;1.40;72.20;;;;;;5035959;28;20124;-40
2022/01/22 06:55:56;;;;;;;12.52;7.18;;;1.50;72.40;;;;;;5035669;28;20398;-40
2022/01/22 06:58:22;;;;;;;14.88;6.55;;;1.50;72.30;;;;;;5035652;28;20069;-37
2022/01/22 07:00:48;;;;;;;13.30;7.40;;;1.60;72.10;;;;;;5035658;28;20048;-40
2022/01/22 07:03:13;;;;;;;11.07;5.90;;;1.60;72.00;;;;;;5035808;28;20083;-37
2022/01/22 07:05:39;;;;;;;10.60;6.25;;;1.60;71.90;;;;;;5035264;28;20037;-40
2022/01/22 07:08:05;;;;;;;13.70;8.07;;;1.70;71.90;;;;;;5035914;28;20299;-39
2022/01/22 07:10:31;;;;;;;14.25;7.15;;;1.70;71.80;;;;;;5035556;28;20302;-43
2022/01/22 07:12:57;;;;;;;17.83;9.00;;;1.80;71.80;;;;;;5035648;28;20044;-40
2022/01/22 07:15:23;;;;;;;12.07;6.10;;;1.80;71.70;;;;;;5035236;28;20025;-41
2022/01/22 07:17:48;;;;;;;13.60;6.20;;;1.90;71.50;;;;;;5036004;28;20325;-42
2022/01/22 07:20:17;;;;;;;12.43;6.57;;;1.90;71.40;;;;;;5034453;28;20046;-40
2022/01/22 07:25:15;;;;;;;11.02;5.88;;;2.00;71.20;;;;;;5035256;28;20204;-39
2022/01/22 07:27:41;;;;;;;11.55;6.57;;;2.00;71.20;;;;;;5035450;28;20052;-38
2022/01/22 07:30:07;;;;;;;12.57;6.95;;;2.10;71.00;;;;;;5035460;28;20034;-36
2022/01/22 07:32:36;;;;;;;10.75;6.30;;;2.10;70.50;;;;;;5035666;28;20477;-40
2022/01/22 07:35:04;;;;;;;12.95;5.63;;;2.10;70.60;;;;;;5034864;28;20045;-38
2022/01/22 07:37:29;;;;;;;11.15;6.13;;;2.10;70.60;;;;;;5035203;28;20112;-36
2022/01/22 07:39:55;;;;;;;9.98;6.00;;;2.20;70.50;;;;;;5035469;28;20119;-41
2022/01/22 07:42:22;;;;;;;9.90;5.65;;;2.20;70.80;;;;;;5045756;28;20366;-36
2022/01/22 07:44:47;;;;;;;11.48;5.80;;;2.20;70.20;;;;;;5035539;28;20071;-40
2022/01/22 07:47:13;;;;;;;12.40;6.70;;;2.30;70.20;;;;;;5052858;28;20071;-39
2022/01/22 07:49:39;;;;;;;13.80;6.40;;;2.30;70.10;;;;;;5055259;28;20061;-38
2022/01/22 07:52:05;;;;;;;13.60;5.72;;;2.30;70.10;;;;;;5055115;28;20104;-41
2022/01/22 07:54:35;;;;;;;10.98;6.32;;;2.30;69.60;;;;;;5055169;28;20061;-42
2022/01/22 07:57:02;;;;;;;12.88;5.50;;;2.40;69.60;;;;;;5055135;28;20429;-38
2022/01/22 07:59:30;;;;;;;9.20;5.22;;;2.40;69.70;;;;;;5057976;28;20057;-36
2022/01/22 08:01:56;;;;;;;10.00;5.43;;;2.40;69.60;;;;;;5059272;28;20044;-36
2022/01/22 08:04:24;;;;;;;11.55;5.82;;;2.40;69.30;;;;;;5058395;28;20048;-40
2022/01/22 08:06:52;;;;;;;15.05;5.57;;;2.50;69.20;;;;;;5058827;28;20186;-42
2022/01/22 08:09:20;;;;;;;9.07;4.72;;;2.50;69.20;;;;;;5058493;28;20096;-37
2022/01/22 08:11:46;;;;;;;11.60;6.25;;;2.50;69.10;;;;;;5058445;28;20115;-37
2022/01/22 08:14:12;;;;;;;11.18;5.88;;;2.50;69.20;;;;;;5058678;28;20041;-37
2022/01/22 08:16:38;;;;;;;12.43;5.53;;;2.50;69.70;;;;;;5058485;28;20025;-39
2022/01/22 08:19:04;;;;;;;11.40;6.10;;;2.60;69.00;;;;;;5058426;28;20079;-36
2022/01/22 08:21:30;;;;;;;12.98;6.28;;;2.60;68.90;;;;;;5057987;28;20066;-37
2022/01/22 08:23:56;;;;;;;9.43;5.35;;;2.70;69.00;;;;;;5055812;28;20087;-37
2022/01/22 08:26:26;;;;;;;15.30;6.95;;;2.70;68.60;;;;;;5058039;28;20057;-37
2022/01/22 08:28:57;;;;;;;11.85;5.38;;;2.70;68.60;;;;;;5058369;28;20072;-39
2022/01/22 08:36:44;;;;;;;9.23;5.20;;;2.70;68.40;;;;;;5050447;28;20076;-35
2022/01/22 08:39:11;;;;;;;12.43;5.50;;;2.60;68.40;;;;;;5038218;28;20034;-40
2022/01/22 08:41:36;;;;;;;10.90;5.30;;;2.70;68.10;;;;;;5038376;28;20049;-40
2022/01/22 08:44:03;;;;;;;10.95;4.75;;;2.70;68.00;;;;;;5038012;28;20044;-38
2022/01/22 08:46:30;;;;;;;13.45;5.97;;;2.70;67.90;;;;;;5037308;28;20068;-35
2022/01/22 08:48:55;;;;;;;10.40;5.53;;;2.70;67.70;;;;;;5038218;28;20041;-36
2022/01/22 08:51:21;;;;;;;10.70;5.22;;;2.60;67.60;;;;;;5037964;28;20029;-35
2022/01/22 08:53:48;;;;;;;11.30;5.80;;;2.60;67.40;;;;;;5038017;28;20449;-41
2022/01/22 08:56:15;;;;;;;9.00;5.65;;;2.60;67.50;;;;;;5037732;28;20478;-36
2022/01/22 08:58:40;;;;;;;10.85;4.80;;;2.60;67.40;;;;;;5038167;28;20049;-36
2022/01/22 09:01:07;;;;;;;12.40;5.55;;;2.60;67.20;;;;;;5037161;28;20041;-39
2022/01/22 09:03:33;;;;;;;12.95;6.90;;;2.60;67.10;;;;;;5037796;28;20048;-38
2022/01/22 09:06:00;;;;;;;10.75;5.10;;;2.60;67.30;;;;;;5037388;28;20029;-35
2022/01/22 09:08:26;;;;;;;13.20;5.70;;;2.70;67.30;;;;;;5037338;28;20438;-36
2022/01/22 09:10:53;;;;;;;10.25;5.40;;;2.70;67.20;;;;;;5035176;28;20021;-38
2022/01/22 09:13:21;;;;;;;10.50;5.20;;;2.70;67.10;;;;;;5037628;28;20029;-39
2022/01/22 09:15:49;;;;;;;10.40;4.80;;;2.80;66.60;;;;;;5036138;28;20018;-36
2022/01/22 09:18:15;;;;;;;10.55;5.03;;;2.80;66.30;;;;;;5037662;28;20064;-41
2022/01/22 09:23:07;;;;;;;8.48;4.75;;;2.80;66.00;;;;;;5037494;28;20129;-38
2022/01/22 09:25:34;;;;;;;11.70;5.50;;;2.80;65.80;;;;;;5037007;28;20322;-38
2022/01/22 09:28:00;;;;;;;9.25;4.45;;;2.80;66.10;;;;;;5037536;28;20029;-41
2022/01/22 09:30:26;;;;;;;9.57;4.88;;;2.90;66.00;;;;;;5051005;28;20059;-38
2022/01/22 09:32:52;;;;;;;11.27;4.97;;;3.00;66.00;;;;;;5048316;28;20025;-41
2022/01/22 09:35:18;;;;;;;11.48;5.35;;;3.00;65.40;;;;;;5056482;28;20035;-41
2022/01/22 09:37:45;;;;;;;9.23;4.90;;;3.00;65.30;;;;;;5056931;28;20057;-36
2022/01/22 09:40:12;;;;;;;9.35;4.50;;;3.10;65.20;;;;;;5056713;28;20041;-37
2022/01/22 09:42:39;;;;;;;8.43;4.40;;;3.20;64.90;;;;;;5056666;28;20108;-38
2022/01/22 09:45:07;;;;;;;8.75;4.40;;;3.10;64.30;;;;;;5056895;28;20041;-37
2022/01/22 09:47:33;;;;;;;10.80;4.85;;;3.20;64.10;;;;;;5056734;28;20029;-39
2022/01/22 09:49:59;;;;;;;10.38;4.53;;;3.20;64.20;;;;;;5056508;28;20037;-40
2022/01/22 09:52:25;;;;;;;6.60;4.10;;;3.20;63.90;;;;;;5056602;28;20299;-40
2022/01/22 09:54:50;;;;;;;9.95;4.60;;;3.20;63.70;;;;;;5056619;28;20504;-36
2022/01/22 09:57:16;;;;;;;7.57;4.28;;;3.20;63.80;;;;;;5055607;28;20329;-38
2022/01/22 09:59:42;;;;;;;9.50;4.55;;;3.30;63.60;;;;;;5056704;28;20449;-39
2022/01/22 10:02:17;;;;;;;8.88;4.10;;;3.30;63.50;;;;;;5056421;28;20350;-35
2022/01/22 10:04:48;;;;;;;9.93;4.20;;;3.40;63.50;;;;;;5055958;28;20049;-36
2022/01/22 10:07:21;;;;;;;6.75;4.20;;;3.40;63.20;;;;;;5056200;28;20047;-41
2022/01/22 10:09:59;;;;;;;11.57;4.95;;;3.50;62.70;;;;;;5055727;28;20337;-37
2022/01/22 10:12:27;;;;;;;7.25;4.13;;;3.50;62.50;;;;;;5055872;28;20421;-35
2022/01/22 10:15:08;;;;;;;9.75;5.35;;;3.50;62.30;;;;;;5056240;28;20068;-39
2022/01/22 10:17:50;;;;;;;8.00;4.00;;;3.50;62.50;;;;;;5056492;28;20029;-36
2022/01/22 10:20:24;;;;;;;10.02;4.38;;;3.50;62.20;;;;;;5055502;28;20091;-41
2022/01/22 10:22:52;;;;;;;9.48;4.60;;;3.60;61.60;;;;;;5055315;28;20029;-37
2022/01/22 10:25:33;;;;;;;7.28;3.92;;;3.60;61.60;;;;;;5055788;28;20384;-35
2022/01/22 10:28:14;;;;;;;10.55;4.93;;;3.60;61.60;;;;;;5055761;28;20025;-37
2022/01/22 10:30:44;;;;;;;8.35;4.18;;;3.60;61.60;;;;;;5055784;28;20029;-37
2022/01/22 10:35:46;;;;;;;6.28;3.83;;;3.70;60.70;;;;;;5055696;28;20094;-40
2022/01/22 10:38:12;;;;;;;7.93;3.90;;;3.70;60.50;;;;;;5055897;28;20094;-41
2022/01/22 10:40:40;;;;;;;5.80;3.67;;;3.70;60.10;;;;;;5055474;28;20025;-38
2022/01/22 10:43:30;;;;;;;8.85;4.47;;;3.60;59.70;;;;;;5055662;28;20025;-41
2022/01/22 10:48:55;;;;;;;8.63;3.75;;;3.60;60.20;;;;;;5058625;28;20424;-40
2022/01/22 10:51:22;;;;;;;8.35;3.85;;;3.60;60.20;;;;;;5054297;28;20471;-42
2022/01/22 10:53:51;;;;;;;8.52;4.45;;;3.60;60.10;;;;;;5055654;28;20021;-36
2022/01/22 10:56:20;;;;;;;7.50;4.30;;;3.70;59.80;;;;;;5055380;28;20059;-40
2022/01/22 10:59:12;;;;;;;8.68;4.75;;;3.70;59.80;;;;;;5055834;28;20116;-39
2022/01/22 11:01:46;;;;;;;8.55;5.43;;;3.70;59.80;;;;;;5055508;28;20326;-42
2022/01/22 11:04:17;;;;;;;11.65;5.88;;;3.70;59.60;;;;;;5055418;28;20053;-40
2022/01/22 11:06:47;;;;;;;10.82;4.28;;;3.70;59.50;;;;;;5055505;28;20033;-39
2022/01/22 11:09:14;;;;;;;11.88;4.03;;;3.70;59.60;;;;;;5054339;28;20330;-39
2022/01/22 11:11:41;;;;;;;9.98;4.53;;;3.70;59.30;;;;;;5055549;28;20576;-40
2022/01/22 11:14:10;;;;;;;9.98;3.95;;;3.70;59.50;;;;;;5055804;28;20120;-37
2022/01/22 11:16:38;;;;;;;8.52;4.18;;;3.70;59.80;;;;;;5055545;28;20326;-39
2022/01/22 11:19:04;;;;;;;9.55;5.13;;;3.70;59.50;;;;;;5055590;28;20044;-40
2022/01/22 11:21:31;;;;;;;6.68;3.90;;;3.70;59.60;;;;;;5054905;28;20029;-37
2022/01/22 11:23:57;;;;;;;6.38;4.10;;;3.70;59.50;;;;;;5055488;28;20326;-41
2022/01/22 11:26:23;;;;;;;7.50;4.18;;;3.80;59.70;;;;;;5054619;28;20025;-40
2022/01/22 11:28:53;;;;;;;7.40;3.85;;;3.80;59.60;;;;;;5054917;28;20044;-38
2022/01/22 11:31:21;;;;;;;11.15;4.80;;;3.80;59.50;;;;;;5054940;28;20025;-36
2022/01/22 11:33:48;;;;;;;12.52;7.95;;;3.80;59.50;;;;;;5057082;28;20374;-39
2022/01/22 11:36:23;;;;;;;8.10;4.00;;;3.80;59.80;;;;;;5058822;28;20025;-41
2022/01/22 11:38:58;;;;;;;13.73;6.38;;;3.80;59.50;;;;;;5059505;28;20041;-38
2022/01/22 11:41:25;;;;;;;9.88;4.88;;;3.90;59.50;;;;;;5059005;28;20383;-40
2022/01/22 11:44:17;;;;;;;10.43;5.03;;;3.80;59.10;;;;;;5059393;28;20321;-41
2022/01/22 11:46:51;;;;;;;8.77;5.13;;;3.90;59.30;;;;;;5058992;28;20084;-38
2022/01/22 11:49:21;;;;;;;10.60;4.70;;;3.90;59.30;;;;;;5058990;28;20037;-41
2022/01/22 11:51:50;;;;;;;7.43;4.43;;;3.90;59.00;;;;;;5058991;28;20024;-37
2022/01/22 11:54:20;;;;;;;9.13;5.20;;;3.90;58.90;;;;;;5059068;28;20033;-39
2022/01/22 11:56:54;;;;;;;11.07;5.07;;;3.90;59.00;;;;;;5058947;28;20029;-38
2022/01/22 11:59:33;;;;;;;14.38;5.45;;;3.90;58.90;;;;;;5058919;28;20262;-36
2022/01/22 12:02:03;;;;;;;10.10;4.45;;;3.90;59.00;;;;;;5058840;28;20029;-41
2022/01/22 12:04:38;;;;;;;15.20;6.03;;;3.90;58.70;;;;;;5058641;28;20192;-35
2022/01/22 12:07:03;;;;;;;9.38;4.85;;;4.00;59.00;;;;;;5058621;28;20456;-39
2022/01/22 12:15:20;;;;;;;7.20;3.75;;;4.00;57.80;;;;;;5058390;28;20036;-41
2022/01/22 12:23:12;;;;;;;12.35;5.03;;;3.90;57.60;;;;;;5059018;28;20107;-36
2022/01/22 12:25:38;;;;;;;6.60;4.00;;;3.90;57.70;;;;;;5058112;28;20049;-39
2022/01/22 12:28:06;;;;;;;7.28;4.10;;;3.90;57.30;;;;;;5058100;28;20057;-39
2022/01/22 12:30:52;;;;;;;9.27;4.22;;;3.80;57.30;;;;;;5058236;28;20017;-37
2022/01/22 12:33:29;;;;;;;17.08;6.78;;;3.70;57.10;;;;;;5058076;28;20037;-41
2022/01/22 12:36:00;;;;;;;11.20;5.13;;;3.70;57.40;;;;;;5057782;28;20032;-41
2022/01/22 12:44:13;;;;;;;8.98;4.53;;;3.50;57.50;;;;;;5058226;28;20116;-39
2022/01/22 12:46:39;;;;;;;5.85;3.90;;;3.40;57.30;;;;;;5055856;28;20044;-36
2022/01/22 12:49:07;;;;;;;13.77;5.72;;;3.40;57.80;;;;;;5057805;28;20033;-37
2022/01/22 12:51:33;;;;;;;9.15;4.63;;;3.40;58.10;;;;;;5056325;28;20040;-38
2022/01/22 12:53:59;;;;;;;7.88;4.55;;;3.40;57.90;;;;;;5058137;28;20112;-40
2022/01/22 12:59:07;;;;;;;12.18;5.10;;;3.40;57.90;;;;;;5058215;28;20044;-40
2022/01/22 13:01:34;;;;;;;12.38;6.45;;;3.40;57.70;;;;;;5057671;28;20029;-38
2022/01/22 13:04:02;;;;;;;11.07;6.75;;;3.40;57.60;;;;;;5058120;28;20346;-37
2022/01/22 13:06:48;;;;;;;36.78;15.93;;;3.40;57.70;;;;;;5057328;28;20163;-41
2022/01/22 13:09:14;;;;;;;13.20;5.82;;;3.40;58.10;;;;;;5057501;28;20033;-38
2022/01/22 13:11:48;;;;;;;12.07;6.32;;;3.40;58.10;;;;;;5057254;28;20413;-38
2022/01/22 13:14:16;;;;;;;10.40;5.55;;;3.40;58.10;;;;;;5057699;28;20252;-39
2022/01/22 13:16:51;;;;;;;13.48;5.85;;;3.40;58.40;;;;;;5057155;28;20410;-37
2022/01/22 13:19:17;;;;;;;11.20;5.38;;;3.40;58.40;;;;;;5057618;28;20076;-38
2022/01/22 13:21:55;;;;;;;8.77;4.90;;;3.40;58.50;;;;;;5057684;28;20104;-40
2022/01/22 13:24:27;;;;;;;10.27;5.32;;;3.40;58.50;;;;;;5057237;28;20482;-42
2022/01/22 13:27:03;;;;;;;10.73;6.25;;;3.30;58.30;;;;;;5053489;28;20021;-36
2022/01/22 13:29:39;;;;;;;8.48;5.05;;;3.30;58.20;;;;;;5056969;28;20033;-38
2022/01/22 13:35:27;;;;;;;9.55;5.63;;;3.30;58.60;;;;;;5057500;28;20028;-31
2022/01/22 13:38:40;;;;;;;12.20;5.30;;;3.20;58.60;;;;;;5056759;28;20056;-35
2022/01/22 13:49:27;;;;;;;10.43;4.90;;;3.10;59.10;;;;;;5057033;28;20056;-37
2022/01/22 13:52:02;;;;;;;10.13;4.38;;;3.00;59.00;;;;;;5056550;28;20041;-35
2022/01/22 13:54:36;;;;;;;9.10;4.28;;;2.90;58.70;;;;;;5056897;28;20420;-38
2022/01/22 13:57:05;;;;;;;8.05;4.20;;;2.90;58.80;;;;;;5056250;28;20045;-35
2022/01/22 13:59:44;;;;;;;9.73;4.53;;;2.80;58.70;;;;;;5056760;28;20102;-38
2022/01/22 14:04:46;;;;;;;;;;;2.80;59.10;;;;;;5056811;28;20044;-39
2022/01/22 14:07:13;;;;;;;19.67;5.50;;;2.80;59.30;;;;;;5056237;28;19928;-41
2022/01/22 14:10:12;;;;;;;12.48;6.60;;;2.70;59.40;;;;;;5056333;28;20067;-42
2022/01/22 14:12:55;;;;;;;13.45;6.07;;;2.80;59.80;;;;;;5056386;28;20057;-42
2022/01/22 14:15:24;;;;;;;11.63;6.30;;;2.80;59.70;;;;;;5056093;28;20532;-41
2022/01/22 14:20:55;;;;;;;13.35;7.10;;;2.80;60.40;;;;;;5056214;28;20025;-40
2022/01/22 14:23:24;;;;;;;11.73;6.03;;;2.80;59.80;;;;;;5056377;28;20033;-40
2022/01/22 14:25:58;;;;;;;11.15;5.85;;;2.70;59.40;;;;;;5056153;28;20021;-37
2022/01/22 14:28:36;;;;;;;14.98;5.93;;;2.70;59.30;;;;;;5056330;28;20039;-42
2022/01/22 14:31:15;;;;;;;7.88;4.50;;;2.60;59.40;;;;;;5054856;28;20028;-38
2022/01/22 14:33:41;;;;;;;6.85;3.88;;;2.60;59.60;;;;;;5056324;28;20512;-38
2022/01/22 14:36:07;;;;;;;6.38;4.10;;;2.50;59.70;;;;;;5056039;28;20044;-40
2022/01/22 14:46:53;;;;;;;9.05;5.05;;;2.30;62.50;;;;;;5055909;28;20428;-38
2022/01/22 14:49:23;;;;;;;10.23;5.50;;;2.20;63.50;;;;;;5055605;28;20041;-40
2022/01/22 14:51:49;;;;;;;9.30;5.68;;;2.20;64.50;;;;;;5056083;28;20151;-40
2022/01/22 14:54:15;;;;;;;15.85;6.68;;;2.20;65.10;;;;;;5056112;28;20083;-38
2022/01/22 14:56:42;;;;;;;25.38;14.05;;;2.10;65.60;;;;;;5055539;28;20422;-37
2022/01/22 14:59:08;;;;;;;24.90;13.32;;;2.10;66.20;;;;;;5055773;28;20060;-40
2022/01/22 15:01:34;;;;;;;25.55;11.63;;;2.10;66.40;;;;;;5055777;28;20475;-41
2022/01/22 15:03:59;;;;;;;17.73;10.88;;;2.00;66.50;;;;;;5055509;28;20041;-39
2022/01/22 15:06:25;;;;;;;20.85;11.88;;;2.10;66.70;;;;;;5055511;28;20055;-40
2022/01/22 15:08:51;;;;;;;21.55;13.38;;;2.10;66.80;;;;;;5055088;28;20036;-39
2022/01/22 15:11:16;;;;;;;17.67;10.20;;;2.10;66.80;;;;;;5055380;28;20021;-36
2022/01/22 15:13:42;;;;;;;17.88;9.18;;;2.10;67.00;;;;;;5054543;28;20025;-41
2022/01/22 15:16:10;;;;;;;14.20;8.02;;;2.00;67.10;;;;;;5055195;28;20132;-39
2022/01/22 15:19:02;;;;;;;12.02;6.72;;;2.00;67.30;;;;;;5055659;28;20029;-39
2022/01/22 15:21:21;;;;;;;17.02;8.40;;;2.00;67.60;;;;;;5054946;28;20519;-37
2022/01/22 15:23:47;;;;;;;19.73;8.65;;;1.90;67.70;;;;;;5055953;28;20037;-39
2022/01/22 15:26:14;;;;;;;17.23;8.32;;;1.90;68.00;;;;;;5055787;28;20112;-41
2022/01/22 15:28:44;;;;;;;12.82;7.15;;;1.90;68.40;;;;;;5054387;28;20056;-40
2022/01/22 15:31:27;;;;;;;13.07;6.88;;;2.00;68.60;;;;;;5054034;28;20036;-39
2022/01/22 15:34:06;;;;;;;14.38;6.82;;;1.90;68.70;;;;;;5055699;28;20086;-37
2022/01/22 15:36:32;;;;;;;11.63;6.57;;;2.00;68.80;;;;;;5055609;28;20025;-40
2022/01/22 15:38:58;;;;;;;15.20;8.15;;;2.00;68.70;;;;;;5055563;28;20037;-39
2022/01/22 15:41:23;;;;;;;18.02;9.48;;;2.00;68.60;;;;;;5055180;28;20029;-40
2022/01/22 15:43:49;;;;;;;20.15;11.10;;;2.00;68.60;;;;;;5055655;28;20040;-38